Chesterfield, New Jersey
Current Conditions -  °F | °C
As of 7:33 AM on Monday 26 Jan 2015 (Local Time) from KWRI Reporting Station
Light Snow Light Snow  
Wind Chill: 15°   Ceiling: 2100
Heat Index: 27°   Visibility: 6mi
Dew Point: 23°   Wind: 14mph
Humidity: 86%   Direction: 50°NE
Pressure: 29.92"   Gusts: NA
Location:  40.144°N, 74.6589°W
Report Text: KWRI 261233Z AUTO 05012KT 6SM -SN BR FEW013 BKN021 OVC032 M03/M05 A2992 RMK AO2
Loading
Personal Weather Stations






























Interactive Weather Map New forecast layout! Learn more

10-Day Weather Forecast

Advertisements
Track Severe Weather on mobile